createdAt,value
2023-01-17T00:02:01.713Z,6.07
2023-01-17T00:04:48.146Z,7.28
2023-01-17T00:07:37.193Z,4.50
2023-01-17T00:10:14.016Z,5.00
2023-01-17T00:13:03.150Z,7.18
2023-01-17T00:15:31.736Z,3.90
2023-01-17T00:17:59.302Z,6.25
2023-01-17T00:20:48.849Z,6.72
2023-01-17T00:23:39.245Z,12.75
2023-01-17T00:26:16.676Z,10.10
2023-01-17T00:28:44.522Z,5.27
2023-01-17T00:31:17.719Z,5.72
2023-01-17T00:33:45.085Z,4.03
2023-01-17T00:36:12.822Z,6.95
2023-01-17T00:38:40.903Z,3.28
2023-01-17T00:41:10.518Z,5.57
2023-01-17T00:43:56.755Z,7.13
2023-01-17T00:46:43.333Z,5.20
2023-01-17T00:49:29.014Z,3.22
2023-01-17T00:52:14.785Z,3.90
2023-01-17T00:55:00.755Z,7.43
2023-01-17T00:57:46.595Z,6.82
2023-01-17T01:00:32.761Z,5.22
2023-01-17T01:03:18.389Z,6.32
2023-01-17T01:06:04.203Z,5.90
2023-01-17T01:08:50.424Z,5.77
2023-01-17T01:11:39.417Z,3.92
2023-01-17T01:14:28.562Z,3.00
2023-01-17T01:17:14.286Z,5.35
2023-01-17T01:20:00.055Z,3.88
2023-01-17T01:22:45.675Z,8.77
2023-01-17T01:25:31.455Z,5.78
2023-01-17T01:28:27.674Z,7.45
2023-01-17T01:31:13.321Z,6.70
2023-01-17T01:33:40.404Z,7.85
2023-01-17T01:36:09.296Z,6.03
2023-01-17T01:38:36.830Z,2.80
2023-01-17T01:41:04.946Z,3.15
2023-01-17T01:43:53.497Z,6.78
2023-01-17T01:46:38.668Z,7.63
2023-01-17T01:49:11.903Z,2.43
2023-01-17T01:51:44.396Z,4.18
2023-01-17T01:54:22.686Z,4.85
2023-01-17T01:56:53.189Z,3.30
2023-01-17T01:59:22.986Z,7.68
2023-01-17T02:01:55.502Z,6.07
2023-01-17T02:04:24.057Z,4.05
2023-01-17T02:07:03.687Z,2.05
2023-01-17T02:09:30.784Z,4.75
2023-01-17T02:11:57.974Z,4.65
2023-01-17T02:14:24.989Z,4.30
2023-01-17T02:17:15.798Z,3.35
2023-01-17T02:20:27.708Z,4.07
2023-01-17T02:23:47.638Z,4.35
2023-01-17T02:26:53.953Z,6.35
2023-01-17T02:29:57.985Z,4.00
2023-01-17T02:32:52.880Z,3.17
2023-01-17T02:35:54.732Z,6.38
2023-01-17T02:38:36.847Z,7.60
2023-01-17T02:41:13.699Z,7.20
2023-01-17T02:43:41.402Z,4.50
2023-01-17T02:46:09.893Z,3.35
2023-01-17T02:48:38.083Z,5.90
2023-01-17T02:51:26.144Z,4.47
2023-01-17T02:54:31.901Z,6.85
2023-01-17T02:57:13.456Z,7.70
2023-01-17T02:59:52.447Z,6.93
2023-01-17T03:02:41.115Z,8.48
2023-01-17T03:05:21.452Z,7.22
2023-01-17T03:07:50.359Z,6.63
2023-01-17T03:10:19.279Z,12.33
2023-01-17T03:12:46.521Z,8.25
2023-01-17T03:15:17.589Z,4.88
2023-01-17T03:17:52.072Z,5.70
2023-01-17T03:20:22.352Z,9.55
2023-01-17T03:22:49.807Z,5.53
2023-01-17T03:25:17.648Z,9.07
2023-01-17T03:27:44.785Z,3.95
2023-01-17T03:30:12.739Z,13.65
2023-01-17T03:32:40.296Z,7.80
2023-01-17T03:35:07.949Z,3.63
2023-01-17T03:37:35.261Z,10.45
2023-01-17T03:40:02.371Z,4.20
2023-01-17T03:42:29.438Z,7.63
2023-01-17T03:44:56.562Z,5.30
2023-01-17T03:47:23.722Z,7.10
2023-01-17T03:49:52.027Z,6.90
2023-01-17T03:52:19.145Z,6.70
2023-01-17T03:54:46.209Z,11.30
2023-01-17T03:57:13.321Z,7.65
2023-01-17T03:59:50.254Z,8.67
2023-01-17T04:02:44.883Z,10.02
2023-01-17T04:05:12.006Z,6.20
2023-01-17T04:07:39.105Z,3.05
2023-01-17T04:10:07.269Z,13.95
2023-01-17T04:12:34.331Z,8.00
2023-01-17T04:15:01.463Z,6.75
2023-01-17T04:17:28.822Z,11.48
2023-01-17T04:19:55.947Z,9.45
2023-01-17T04:22:23.077Z,8.48
2023-01-17T04:24:50.152Z,5.13
2023-01-17T04:27:17.287Z,10.13
2023-01-17T04:29:46.842Z,9.95
2023-01-17T04:32:14.710Z,7.80
2023-01-17T04:34:41.960Z,6.55
2023-01-17T04:37:09.036Z,5.67
2023-01-17T04:39:36.143Z,7.60
2023-01-17T04:42:03.264Z,5.38
2023-01-17T04:44:30.351Z,9.30
2023-01-17T04:46:57.469Z,11.52
2023-01-17T04:49:24.481Z,5.37
2023-01-17T04:51:51.566Z,11.48
2023-01-17T04:54:18.647Z,6.72
2023-01-17T04:56:45.744Z,10.55
2023-01-17T04:59:12.842Z,4.60
2023-01-17T05:01:40.008Z,6.50
2023-01-17T05:04:07.234Z,7.63
2023-01-17T05:06:34.365Z,9.27
2023-01-17T05:09:02.768Z,7.63
2023-01-17T05:11:29.892Z,5.60
2023-01-17T05:13:56.902Z,8.13
2023-01-17T05:16:24.189Z,8.63
2023-01-17T05:18:53.395Z,6.95
2023-01-17T05:21:24.200Z,9.65
2023-01-17T05:23:51.365Z,9.38
2023-01-17T05:26:18.465Z,5.00
2023-01-17T05:28:45.548Z,5.35
2023-01-17T05:31:12.722Z,5.55
2023-01-17T05:33:39.798Z,6.95
2023-01-17T05:36:07.436Z,11.85
2023-01-17T05:38:34.476Z,8.47
2023-01-17T05:41:02.772Z,6.93
2023-01-17T05:43:29.833Z,9.63
2023-01-17T05:45:56.914Z,6.55
2023-01-17T05:48:24.024Z,6.47
2023-01-17T05:50:52.147Z,10.67
2023-01-17T05:53:19.270Z,6.10
2023-01-17T05:55:47.638Z,10.32
2023-01-17T05:58:18.764Z,7.38
2023-01-17T06:00:46.468Z,8.05
2023-01-17T06:03:14.327Z,9.37
2023-01-17T06:05:41.694Z,11.95
2023-01-17T06:08:08.950Z,7.95
2023-01-17T06:10:36.256Z,11.25
2023-01-17T06:13:12.462Z,12.10
2023-01-17T06:15:40.107Z,9.13
2023-01-17T06:18:09.489Z,7.93
2023-01-17T06:20:37.085Z,8.82
2023-01-17T06:23:07.444Z,14.32
2023-01-17T06:25:39.684Z,20.25
2023-01-17T06:28:08.001Z,8.73
2023-01-17T06:30:35.820Z,10.23
2023-01-17T06:33:03.541Z,15.00
2023-01-17T06:35:31.379Z,13.35
2023-01-17T06:38:00.337Z,19.65
2023-01-17T06:40:29.029Z,14.87
2023-01-17T06:43:06.108Z,13.07
2023-01-17T06:45:35.613Z,13.40
2023-01-17T06:48:05.078Z,9.20
2023-01-17T06:50:33.308Z,13.20
2023-01-17T06:53:07.115Z,17.60
2023-01-17T06:55:35.173Z,18.40
2023-01-17T06:58:03.303Z,15.13
2023-01-17T07:00:34.945Z,17.85
2023-01-17T07:03:02.680Z,20.52
2023-01-17T07:05:30.025Z,15.73
2023-01-17T07:07:58.221Z,16.33
2023-01-17T07:10:25.279Z,16.63
2023-01-17T07:12:57.365Z,20.05
2023-01-17T07:15:24.411Z,25.25
2023-01-17T07:17:51.455Z,13.27
2023-01-17T07:20:18.645Z,19.10
2023-01-17T07:22:46.217Z,18.38
2023-01-17T07:25:13.432Z,19.80
2023-01-17T07:27:40.495Z,23.95
2023-01-17T07:30:09.149Z,16.93
2023-01-17T07:32:37.147Z,22.10
2023-01-17T07:35:04.985Z,23.83
2023-01-17T07:37:32.114Z,23.73
2023-01-17T07:40:00.952Z,22.38
2023-01-17T07:42:27.999Z,19.63
2023-01-17T07:44:55.165Z,24.30
2023-01-17T07:47:22.297Z,28.75
2023-01-17T07:49:49.414Z,17.58
2023-01-17T07:52:18.217Z,23.08
2023-01-17T07:54:45.391Z,20.80
2023-01-17T07:57:12.823Z,19.23
2023-01-17T07:59:39.987Z,26.77
2023-01-17T08:02:11.195Z,15.25
2023-01-17T08:04:38.396Z,20.52
2023-01-17T08:07:05.404Z,17.77
2023-01-17T08:09:32.514Z,20.75
2023-01-17T08:11:59.598Z,23.58
2023-01-17T08:14:26.988Z,28.38
2023-01-17T08:16:54.105Z,17.88
2023-01-17T08:19:22.331Z,18.70
2023-01-17T08:21:49.487Z,18.27
2023-01-17T08:24:16.545Z,13.45
2023-01-17T08:26:43.640Z,22.27
2023-01-17T08:29:10.747Z,22.88
2023-01-17T08:31:37.831Z,15.83
2023-01-17T08:34:04.960Z,12.63
2023-01-17T08:36:32.148Z,16.02
2023-01-17T08:38:59.803Z,16.52
2023-01-17T08:41:29.603Z,16.02
2023-01-17T08:43:57.150Z,19.37
2023-01-17T08:46:24.754Z,20.88
2023-01-17T08:48:59.947Z,13.63
2023-01-17T08:51:28.151Z,17.52
2023-01-17T08:53:56.741Z,13.85
2023-01-17T08:56:24.224Z,11.50
2023-01-17T08:58:51.287Z,11.00
2023-01-17T09:01:18.886Z,10.85
2023-01-17T09:03:48.002Z,9.65
2023-01-17T09:06:17.142Z,14.90
2023-01-17T09:08:46.991Z,9.60
2023-01-17T09:11:17.242Z,11.82
2023-01-17T09:13:44.760Z,12.27
2023-01-17T09:16:12.400Z,7.68
2023-01-17T09:18:39.513Z,10.32
2023-01-17T09:21:13.866Z,10.50
2023-01-17T09:23:42.169Z,13.13
2023-01-17T09:26:21.140Z,8.10
2023-01-17T09:28:48.892Z,12.70
2023-01-17T09:31:17.558Z,8.85
2023-01-17T09:33:45.084Z,10.13
2023-01-17T09:36:12.447Z,8.93
2023-01-17T09:38:40.122Z,9.05
2023-01-17T09:42:00.374Z,7.68
2023-01-17T09:44:47.441Z,11.43
2023-01-17T09:47:40.435Z,12.23
2023-01-17T09:50:30.738Z,9.25
2023-01-17T09:53:12.926Z,7.97
2023-01-17T09:56:18.898Z,10.50
2023-01-17T09:59:19.303Z,13.65
2023-01-17T10:02:26.333Z,10.90
2023-01-17T10:05:46.517Z,23.40
2023-01-17T10:08:37.840Z,10.65
2023-01-17T10:11:47.993Z,9.80
2023-01-17T10:14:51.495Z,15.82
2023-01-17T10:17:52.572Z,7.73
2023-01-17T10:20:37.289Z,10.55
2023-01-17T10:23:29.490Z,10.80
2023-01-17T10:26:19.151Z,9.98
2023-01-17T10:28:52.990Z,10.98
2023-01-17T10:31:25.919Z,9.70
2023-01-17T10:34:00.690Z,13.68
2023-01-17T10:36:38.046Z,17.77
2023-01-17T10:39:25.574Z,8.55
2023-01-17T10:42:12.929Z,7.68
2023-01-17T10:45:15.676Z,8.43
2023-01-17T10:47:50.806Z,8.95
2023-01-17T10:50:18.166Z,7.35
2023-01-17T10:53:31.101Z,7.78
2023-01-17T10:55:59.082Z,13.00
2023-01-17T10:58:26.391Z,12.07
2023-01-17T11:01:01.442Z,14.13
2023-01-17T11:03:29.319Z,13.35
2023-01-17T11:06:22.356Z,12.15
2023-01-17T11:08:58.673Z,13.27
2023-01-17T11:11:31.749Z,13.40
2023-01-17T11:14:03.098Z,13.23
2023-01-17T11:16:32.386Z,16.30
2023-01-17T11:19:29.704Z,16.42
2023-01-17T11:22:04.749Z,12.20
2023-01-17T11:24:47.482Z,13.77
2023-01-17T11:27:33.841Z,12.25
2023-01-17T11:30:21.825Z,11.20
2023-01-17T11:32:54.189Z,9.52
2023-01-17T11:35:25.555Z,13.15
2023-01-17T11:38:06.148Z,15.87
2023-01-17T11:40:43.113Z,10.63
2023-01-17T11:43:14.287Z,14.50
2023-01-17T11:45:42.599Z,24.60
2023-01-17T11:48:12.724Z,13.98
2023-01-17T11:50:55.488Z,13.30
2023-01-17T11:53:32.923Z,10.20
2023-01-17T11:56:05.156Z,14.98
2023-01-17T11:58:36.133Z,10.85
2023-01-17T12:01:35.296Z,12.43
2023-01-17T12:04:37.688Z,13.47
2023-01-17T12:07:22.486Z,12.65
2023-01-17T12:10:30.777Z,15.10
2023-01-17T12:13:47.252Z,11.80
2023-01-17T12:16:33.215Z,13.38
2023-01-17T12:19:32.134Z,14.43
2023-01-17T12:22:04.718Z,10.55
2023-01-17T12:25:20.391Z,9.82
2023-01-17T12:28:22.711Z,7.38
2023-01-17T12:31:16.247Z,10.80
2023-01-17T12:33:43.585Z,7.60
2023-01-17T12:36:30.964Z,12.05
2023-01-17T12:39:03.953Z,10.32
2023-01-17T12:42:02.257Z,6.57
2023-01-17T12:44:50.033Z,6.85
2023-01-17T12:47:20.817Z,7.83
2023-01-17T12:50:03.054Z,6.60
2023-01-17T12:52:58.006Z,5.43
2023-01-17T12:55:49.782Z,5.20
2023-01-17T12:58:28.753Z,5.60
2023-01-17T13:01:30.147Z,5.30
2023-01-17T13:04:18.849Z,5.75
2023-01-17T13:07:19.448Z,5.00
2023-01-17T13:10:22.769Z,5.93
2023-01-17T13:12:51.249Z,5.05
2023-01-17T13:15:25.146Z,4.77
2023-01-17T13:18:03.799Z,4.75
2023-01-17T13:20:56.147Z,5.25
2023-01-17T13:23:45.481Z,5.50
2023-01-17T13:26:36.370Z,5.22
2023-01-17T13:29:13.644Z,4.60
2023-01-17T13:32:06.767Z,3.47
2023-01-17T13:34:52.992Z,2.90
2023-01-17T13:37:49.971Z,4.10
2023-01-17T13:40:34.333Z,4.82
2023-01-17T13:43:04.674Z,2.40
2023-01-17T13:45:37.570Z,5.13
2023-01-17T13:48:16.987Z,6.10
2023-01-17T13:51:02.238Z,2.05
2023-01-17T13:53:31.300Z,1.65
2023-01-17T13:56:19.799Z,2.13
2023-01-17T13:58:57.549Z,2.47
2023-01-17T14:01:24.812Z,4.78
2023-01-17T14:03:52.541Z,4.25
2023-01-17T14:06:30.246Z,3.67
2023-01-17T14:09:22.616Z,3.40
2023-01-17T14:12:10.735Z,4.82
2023-01-17T14:14:40.882Z,2.25
2023-01-17T14:17:23.087Z,2.88
2023-01-17T14:20:12.442Z,3.15
2023-01-17T14:22:50.724Z,2.33
2023-01-17T14:25:22.398Z,10.75
2023-01-17T14:27:55.133Z,2.13
2023-01-17T14:30:34.101Z,3.47
2023-01-17T14:33:01.318Z,1.23
2023-01-17T14:35:38.497Z,5.10
2023-01-17T14:38:31.458Z,3.22
2023-01-17T14:41:09.538Z,1.58
2023-01-17T14:43:42.076Z,3.53
2023-01-17T14:46:28.668Z,2.63
2023-01-17T14:49:18.335Z,4.47
2023-01-17T14:52:00.322Z,3.83
2023-01-17T14:54:27.442Z,2.15
2023-01-17T14:57:15.894Z,4.40
2023-01-17T14:59:42.981Z,3.22
2023-01-17T15:02:15.883Z,3.30
2023-01-17T15:04:43.801Z,4.15
2023-01-17T15:07:16.735Z,7.35
2023-01-17T15:09:45.013Z,6.00
2023-01-17T15:12:16.373Z,6.00
2023-01-17T15:14:46.641Z,3.53
2023-01-17T15:17:26.114Z,4.65
2023-01-17T15:20:01.378Z,4.45
2023-01-17T15:22:29.664Z,5.75
2023-01-17T15:24:58.559Z,3.25
2023-01-17T15:27:26.701Z,5.13
2023-01-17T15:29:55.019Z,2.92
2023-01-17T15:32:31.064Z,4.25
2023-01-17T15:34:59.940Z,5.07
2023-01-17T15:37:34.921Z,3.42
2023-01-17T15:40:21.916Z,3.73
2023-01-17T15:42:59.370Z,4.07
2023-01-17T15:45:32.368Z,6.85
2023-01-17T15:48:40.541Z,4.97
2023-01-17T15:51:11.106Z,3.55
2023-01-17T15:53:42.505Z,6.37
2023-01-17T15:56:39.001Z,6.82
2023-01-17T15:59:45.547Z,6.30
2023-01-17T16:02:55.167Z,4.78
2023-01-17T16:05:22.788Z,5.70
2023-01-17T16:07:56.370Z,6.67
2023-01-17T16:10:31.700Z,8.10
2023-01-17T16:13:00.036Z,6.28
2023-01-17T16:15:28.272Z,6.85
2023-01-17T16:18:16.033Z,6.45
2023-01-17T16:21:15.480Z,8.90
2023-01-17T16:23:42.819Z,9.43
2023-01-17T16:26:10.886Z,7.68
2023-01-17T16:28:38.922Z,10.93
2023-01-17T16:31:06.238Z,7.82
2023-01-17T16:33:33.341Z,12.87
2023-01-17T16:36:00.469Z,8.18
2023-01-17T16:38:27.602Z,8.85
2023-01-17T16:40:54.790Z,10.10
2023-01-17T16:43:21.883Z,14.68
2023-01-17T16:45:53.096Z,16.43
2023-01-17T16:48:21.384Z,14.63
2023-01-17T16:50:52.158Z,17.17
2023-01-17T16:53:26.652Z,21.35
2023-01-17T16:55:59.793Z,22.25
2023-01-17T16:58:26.878Z,24.57
2023-01-17T17:00:55.575Z,18.25
2023-01-17T17:03:23.053Z,15.80
2023-01-17T17:05:59.713Z,20.80
2023-01-17T17:08:29.228Z,20.38
2023-01-17T17:11:17.924Z,21.47
2023-01-17T17:13:48.145Z,20.38
2023-01-17T17:16:22.859Z,16.95
2023-01-17T17:19:16.227Z,19.23
2023-01-17T17:21:43.390Z,19.33
2023-01-17T17:24:15.131Z,17.27
2023-01-17T17:26:42.710Z,16.15
2023-01-17T17:29:12.973Z,17.48
2023-01-17T17:31:41.953Z,18.02
2023-01-17T17:34:12.546Z,20.40
2023-01-17T17:36:39.911Z,20.30
2023-01-17T17:39:11.472Z,19.75
2023-01-17T17:41:42.768Z,21.30
2023-01-17T17:44:10.146Z,20.98
2023-01-17T17:46:37.732Z,24.88
2023-01-17T17:49:06.678Z,26.33
2023-01-17T17:51:39.552Z,22.30
2023-01-17T17:54:13.759Z,28.60
2023-01-17T17:56:46.274Z,21.73
2023-01-17T17:59:18.149Z,23.05
2023-01-17T18:01:46.383Z,24.00
2023-01-17T18:04:14.097Z,25.65
2023-01-17T18:06:42.094Z,24.05
2023-01-17T18:09:11.779Z,24.88
2023-01-17T18:11:41.684Z,26.60
2023-01-17T18:14:13.128Z,25.97
2023-01-17T18:16:43.646Z,26.08
2023-01-17T18:19:21.935Z,26.10
2023-01-17T18:21:51.205Z,21.17
2023-01-17T18:24:22.245Z,27.02
2023-01-17T18:26:51.932Z,22.57
2023-01-17T18:29:24.857Z,43.28
2023-01-17T18:31:53.395Z,81.72
2023-01-17T18:34:24.205Z,93.53
2023-01-17T18:36:52.364Z,72.60
2023-01-17T18:39:24.390Z,43.43
2023-01-17T18:41:52.332Z,31.67
2023-01-17T18:44:21.980Z,26.50
2023-01-17T18:46:50.714Z,21.20
2023-01-17T18:49:19.150Z,17.48
2023-01-17T18:51:51.076Z,19.07
2023-01-17T18:54:20.085Z,16.20
2023-01-17T18:56:47.560Z,17.95
2023-01-17T18:59:18.757Z,15.90
2023-01-17T19:01:46.656Z,16.00
2023-01-17T19:04:15.938Z,15.43
2023-01-17T19:06:46.270Z,17.58
2023-01-17T19:09:16.026Z,15.57
2023-01-17T19:11:45.002Z,20.50
2023-01-17T19:14:12.790Z,20.23
2023-01-17T19:16:42.068Z,16.77
2023-01-17T19:19:14.172Z,16.58
2023-01-17T19:21:41.420Z,18.63
2023-01-17T19:24:13.017Z,18.70
2023-01-17T19:26:40.728Z,24.75
2023-01-17T19:29:07.892Z,27.47
2023-01-17T19:31:42.283Z,25.90
2023-01-17T19:34:09.791Z,24.42
2023-01-17T19:36:38.697Z,21.85
2023-01-17T19:42:15.649Z,17.00
2023-01-17T19:44:43.345Z,20.88
2023-01-17T19:47:10.870Z,23.50
2023-01-17T19:49:44.161Z,24.85
2023-01-17T19:52:11.265Z,22.45
2023-01-17T19:54:38.303Z,22.40
2023-01-17T19:57:05.402Z,20.08
2023-01-17T19:59:32.511Z,22.17
2023-01-17T20:02:01.217Z,23.13
2023-01-17T20:04:28.501Z,20.10
2023-01-17T20:06:55.534Z,18.23
2023-01-17T20:09:23.837Z,17.77
2023-01-17T20:11:51.211Z,20.63
2023-01-17T20:14:18.321Z,22.05
2023-01-17T20:16:47.461Z,23.65
2023-01-17T20:19:15.353Z,19.87
2023-01-17T20:21:42.440Z,20.75
2023-01-17T20:24:11.105Z,22.55
2023-01-17T20:26:38.311Z,19.55
2023-01-17T20:29:14.956Z,19.60
2023-01-17T20:31:44.076Z,15.53
2023-01-17T20:34:14.074Z,19.88
2023-01-17T20:36:42.332Z,16.40
2023-01-17T20:39:10.953Z,19.80
2023-01-17T20:41:40.999Z,15.80
2023-01-17T20:44:13.742Z,15.17
2023-01-17T20:46:41.501Z,14.52
2023-01-17T20:49:14.972Z,17.15
2023-01-17T20:51:44.247Z,16.55
2023-01-17T20:54:18.045Z,15.15
2023-01-17T20:56:47.291Z,18.33
2023-01-17T20:59:18.170Z,18.23
2023-01-17T21:01:45.836Z,15.90
2023-01-17T21:04:14.620Z,17.02
2023-01-17T21:06:43.478Z,18.15
2023-01-17T21:09:14.663Z,15.13
2023-01-17T21:11:41.954Z,15.95
2023-01-17T21:14:09.139Z,14.45
2023-01-17T21:16:36.385Z,16.77
2023-01-17T21:19:03.879Z,15.18
2023-01-17T21:21:31.169Z,18.67
2023-01-17T21:23:59.381Z,18.85
2023-01-17T21:26:28.796Z,20.23
2023-01-17T21:28:58.059Z,20.15
2023-01-17T21:31:28.695Z,18.30
2023-01-17T21:34:01.609Z,22.33
2023-01-17T21:36:33.821Z,19.17
2023-01-17T21:39:06.356Z,17.85
2023-01-17T21:41:37.981Z,19.05
2023-01-17T21:44:10.659Z,20.05
2023-01-17T21:46:40.028Z,18.50
2023-01-17T21:49:12.771Z,18.85
2023-01-17T21:51:53.794Z,18.33
2023-01-17T21:54:44.804Z,15.27
2023-01-17T21:57:32.641Z,16.65
2023-01-17T21:59:59.749Z,17.77
2023-01-17T22:02:26.908Z,16.20
2023-01-17T22:04:57.060Z,16.33
2023-01-17T22:07:26.871Z,13.70
2023-01-17T22:09:54.074Z,17.15
2023-01-17T22:12:21.122Z,12.60
2023-01-17T22:14:48.190Z,13.48
2023-01-17T22:17:15.294Z,13.63
2023-01-17T22:19:42.352Z,18.42
2023-01-17T22:22:09.448Z,18.88
2023-01-17T22:24:36.507Z,16.90
2023-01-17T22:27:03.971Z,22.15
2023-01-17T22:29:33.432Z,16.70
2023-01-17T22:32:00.539Z,18.25
2023-01-17T22:34:27.650Z,19.38
2023-01-17T22:36:54.727Z,20.67
2023-01-17T22:39:21.785Z,23.92
2023-01-17T22:41:49.220Z,17.67
2023-01-17T22:44:16.273Z,20.95
2023-01-17T22:46:43.346Z,17.67
2023-01-17T22:49:15.655Z,18.30
2023-01-17T22:51:42.799Z,16.27
2023-01-17T22:54:11.333Z,17.02
2023-01-17T22:56:38.421Z,19.67
2023-01-17T22:59:11.214Z,18.95
2023-01-17T23:01:42.911Z,19.77
2023-01-17T23:04:13.969Z,20.77
2023-01-17T23:06:42.127Z,20.98
2023-01-17T23:09:14.726Z,17.15
2023-01-17T23:11:47.005Z,21.33
2023-01-17T23:14:53.748Z,16.60
2023-01-17T23:17:41.636Z,20.08
2023-01-17T23:20:10.938Z,19.45
2023-01-17T23:22:38.547Z,17.98
2023-01-17T23:25:14.043Z,17.77
2023-01-17T23:28:03.205Z,17.67
2023-01-17T23:30:41.919Z,17.65
2023-01-17T23:33:14.740Z,18.45
2023-01-17T23:35:45.381Z,19.75
2023-01-17T23:38:30.699Z,17.65
2023-01-17T23:41:24.937Z,19.47
2023-01-17T23:43:53.928Z,16.50
2023-01-17T23:46:21.665Z,18.13
2023-01-17T23:48:49.406Z,17.92
2023-01-17T23:51:16.559Z,21.98
2023-01-17T23:53:43.620Z,20.07
2023-01-17T23:56:19.346Z,20.60
2023-01-17T23:58:46.469Z,17.17
